sensor_id;sensor_type;location;lat;lon;timestamp;P1;durP1;ratioP1;P2;durP2;ratioP2
22660;SDS011;11497;52.222;21.246;2023-04-19T00:02:22;7.22;;;5.38;;
22660;SDS011;11497;52.222;21.246;2023-04-19T00:04:52;8.68;;;5.50;;
22660;SDS011;11497;52.222;21.246;2023-04-19T00:07:21;7.68;;;5.25;;
22660;SDS011;11497;52.222;21.246;2023-04-19T00:09:49;7.13;;;4.78;;
22660;SDS011;11497;52.222;21.246;2023-04-19T00:12:16;7.15;;;5.22;;
22660;SDS011;11497;52.222;21.246;2023-04-19T00:14:45;7.93;;;5.10;;
22660;SDS011;11497;52.222;21.246;2023-04-19T00:17:12;6.65;;;5.10;;
22660;SDS011;11497;52.222;21.246;2023-04-19T00:19:40;7.72;;;5.40;;
22660;SDS011;11497;52.222;21.246;2023-04-19T00:22:08;9.20;;;5.43;;
22660;SDS011;11497;52.222;21.246;2023-04-19T00:24:36;8.88;;;5.65;;
22660;SDS011;11497;52.222;21.246;2023-04-19T00:27:04;10.90;;;5.88;;
22660;SDS011;11497;52.222;21.246;2023-04-19T00:29:32;7.00;;;5.15;;
22660;SDS011;11497;52.222;21.246;2023-04-19T00:32:00;10.60;;;5.50;;
22660;SDS011;11497;52.222;21.246;2023-04-19T00:34:29;8.25;;;5.90;;
22660;SDS011;11497;52.222;21.246;2023-04-19T00:36:57;8.75;;;6.18;;
22660;SDS011;11497;52.222;21.246;2023-04-19T00:39:25;8.02;;;5.90;;
22660;SDS011;11497;52.222;21.246;2023-04-19T00:41:52;9.55;;;6.00;;
22660;SDS011;11497;52.222;21.246;2023-04-19T00:44:23;7.68;;;5.53;;
22660;SDS011;11497;52.222;21.246;2023-04-19T00:46:52;7.82;;;5.95;;
22660;SDS011;11497;52.222;21.246;2023-04-19T00:49:22;8.80;;;5.90;;
22660;SDS011;11497;52.222;21.246;2023-04-19T00:51:50;9.30;;;6.32;;
22660;SDS011;11497;52.222;21.246;2023-04-19T00:54:19;8.52;;;5.78;;
22660;SDS011;11497;52.222;21.246;2023-04-19T00:56:48;10.60;;;6.05;;
22660;SDS011;11497;52.222;21.246;2023-04-19T00:59:17;12.77;;;6.15;;
22660;SDS011;11497;52.222;21.246;2023-04-19T01:01:45;9.50;;;6.47;;
22660;SDS011;11497;52.222;21.246;2023-04-19T01:04:14;8.90;;;6.32;;
22660;SDS011;11497;52.222;21.246;2023-04-19T01:06:42;9.75;;;6.30;;
22660;SDS011;11497;52.222;21.246;2023-04-19T01:09:11;12.00;;;7.18;;
22660;SDS011;11497;52.222;21.246;2023-04-19T01:11:39;11.40;;;6.50;;
22660;SDS011;11497;52.222;21.246;2023-04-19T01:14:09;9.85;;;6.88;;
22660;SDS011;11497;52.222;21.246;2023-04-19T01:16:37;10.00;;;6.95;;
22660;SDS011;11497;52.222;21.246;2023-04-19T01:19:05;12.20;;;7.43;;
22660;SDS011;11497;52.222;21.246;2023-04-19T01:21:35;11.77;;;7.25;;
22660;SDS011;11497;52.222;21.246;2023-04-19T01:24:05;15.25;;;7.97;;
22660;SDS011;11497;52.222;21.246;2023-04-19T01:26:33;10.40;;;7.85;;
22660;SDS011;11497;52.222;21.246;2023-04-19T01:29:01;10.32;;;7.55;;
22660;SDS011;11497;52.222;21.246;2023-04-19T01:31:29;12.20;;;7.43;;
22660;SDS011;11497;52.222;21.246;2023-04-19T01:33:57;11.65;;;8.25;;
22660;SDS011;11497;52.222;21.246;2023-04-19T01:36:25;17.23;;;8.90;;
22660;SDS011;11497;52.222;21.246;2023-04-19T01:38:53;13.90;;;9.90;;
22660;SDS011;11497;52.222;21.246;2023-04-19T01:41:22;12.90;;;9.80;;
22660;SDS011;11497;52.222;21.246;2023-04-19T01:43:53;13.60;;;10.43;;
22660;SDS011;11497;52.222;21.246;2023-04-19T01:46:20;14.43;;;10.02;;
22660;SDS011;11497;52.222;21.246;2023-04-19T01:48:50;17.15;;;11.40;;
22660;SDS011;11497;52.222;21.246;2023-04-19T01:51:19;16.13;;;10.63;;
22660;SDS011;11497;52.222;21.246;2023-04-19T01:53:47;15.30;;;11.23;;
22660;SDS011;11497;52.222;21.246;2023-04-19T01:56:21;17.35;;;11.95;;
22660;SDS011;11497;52.222;21.246;2023-04-19T01:58:49;16.73;;;11.95;;
22660;SDS011;11497;52.222;21.246;2023-04-19T02:01:17;19.02;;;13.00;;
22660;SDS011;11497;52.222;21.246;2023-04-19T02:03:46;15.82;;;12.52;;
22660;SDS011;11497;52.222;21.246;2023-04-19T02:06:13;19.40;;;12.45;;
22660;SDS011;11497;52.222;21.246;2023-04-19T02:08:41;16.90;;;12.55;;
22660;SDS011;11497;52.222;21.246;2023-04-19T02:11:10;19.50;;;12.90;;
22660;SDS011;11497;52.222;21.246;2023-04-19T02:13:42;17.40;;;12.30;;
22660;SDS011;11497;52.222;21.246;2023-04-19T02:16:10;18.90;;;12.90;;
22660;SDS011;11497;52.222;21.246;2023-04-19T02:18:38;16.15;;;12.75;;
22660;SDS011;11497;52.222;21.246;2023-04-19T02:21:06;20.02;;;13.90;;
22660;SDS011;11497;52.222;21.246;2023-04-19T02:23:35;20.17;;;14.27;;
22660;SDS011;11497;52.222;21.246;2023-04-19T02:26:03;18.10;;;13.07;;
22660;SDS011;11497;52.222;21.246;2023-04-19T02:28:31;19.80;;;14.25;;
22660;SDS011;11497;52.222;21.246;2023-04-19T02:31:02;19.58;;;14.45;;
22660;SDS011;11497;52.222;21.246;2023-04-19T02:33:33;20.58;;;14.75;;
22660;SDS011;11497;52.222;21.246;2023-04-19T02:36:02;20.08;;;14.25;;
22660;SDS011;11497;52.222;21.246;2023-04-19T02:38:31;19.65;;;14.57;;
22660;SDS011;11497;52.222;21.246;2023-04-19T02:40:59;19.25;;;14.00;;
22660;SDS011;11497;52.222;21.246;2023-04-19T02:43:30;21.48;;;14.73;;
22660;SDS011;11497;52.222;21.246;2023-04-19T02:45:57;17.70;;;13.27;;
22660;SDS011;11497;52.222;21.246;2023-04-19T02:48:25;20.35;;;14.32;;
22660;SDS011;11497;52.222;21.246;2023-04-19T02:50:53;19.10;;;14.43;;
22660;SDS011;11497;52.222;21.246;2023-04-19T02:53:22;20.20;;;14.45;;
22660;SDS011;11497;52.222;21.246;2023-04-19T02:55:50;23.13;;;15.25;;
22660;SDS011;11497;52.222;21.246;2023-04-19T02:58:19;21.92;;;14.98;;
22660;SDS011;11497;52.222;21.246;2023-04-19T03:00:58;22.70;;;14.68;;
22660;SDS011;11497;52.222;21.246;2023-04-19T03:03:27;19.88;;;14.77;;
22660;SDS011;11497;52.222;21.246;2023-04-19T03:05:54;21.55;;;14.23;;
22660;SDS011;11497;52.222;21.246;2023-04-19T03:08:23;19.42;;;13.90;;
22660;SDS011;11497;52.222;21.246;2023-04-19T03:10:51;19.83;;;13.55;;
22660;SDS011;11497;52.222;21.246;2023-04-19T03:13:19;20.65;;;14.70;;
22660;SDS011;11497;52.222;21.246;2023-04-19T03:15:47;20.40;;;14.32;;
22660;SDS011;11497;52.222;21.246;2023-04-19T03:18:16;18.70;;;13.85;;
22660;SDS011;11497;52.222;21.246;2023-04-19T03:20:45;19.17;;;13.73;;
22660;SDS011;11497;52.222;21.246;2023-04-19T03:23:13;17.52;;;12.60;;
22660;SDS011;11497;52.222;21.246;2023-04-19T03:25:40;19.48;;;13.15;;
22660;SDS011;11497;52.222;21.246;2023-04-19T03:28:19;17.85;;;12.93;;
22660;SDS011;11497;52.222;21.246;2023-04-19T03:31:07;18.90;;;13.07;;
22660;SDS011;11497;52.222;21.246;2023-04-19T03:33:36;17.75;;;13.00;;
22660;SDS011;11497;52.222;21.246;2023-04-19T03:36:04;18.52;;;12.35;;
22660;SDS011;11497;52.222;21.246;2023-04-19T03:38:33;16.60;;;12.38;;
22660;SDS011;11497;52.222;21.246;2023-04-19T03:41:03;16.73;;;13.02;;
22660;SDS011;11497;52.222;21.246;2023-04-19T03:43:36;19.40;;;13.18;;
22660;SDS011;11497;52.222;21.246;2023-04-19T03:46:03;20.52;;;13.40;;
22660;SDS011;11497;52.222;21.246;2023-04-19T03:48:32;21.45;;;14.20;;
22660;SDS011;11497;52.222;21.246;2023-04-19T03:51:01;19.10;;;13.50;;
22660;SDS011;11497;52.222;21.246;2023-04-19T03:53:29;19.38;;;13.95;;
22660;SDS011;11497;52.222;21.246;2023-04-19T03:55:57;19.05;;;13.75;;
22660;SDS011;11497;52.222;21.246;2023-04-19T03:58:25;20.17;;;13.38;;
22660;SDS011;11497;52.222;21.246;2023-04-19T04:01:00;20.38;;;14.15;;
22660;SDS011;11497;52.222;21.246;2023-04-19T04:03:29;19.27;;;13.07;;
22660;SDS011;11497;52.222;21.246;2023-04-19T04:05:57;18.25;;;13.65;;
22660;SDS011;11497;52.222;21.246;2023-04-19T04:08:25;18.00;;;13.32;;
22660;SDS011;11497;52.222;21.246;2023-04-19T04:10:53;20.88;;;14.07;;
22660;SDS011;11497;52.222;21.246;2023-04-19T04:13:21;19.17;;;14.60;;
22660;SDS011;11497;52.222;21.246;2023-04-19T04:16:01;18.70;;;13.52;;
22660;SDS011;11497;52.222;21.246;2023-04-19T04:18:30;19.90;;;14.40;;
22660;SDS011;11497;52.222;21.246;2023-04-19T04:20:59;18.60;;;13.95;;
22660;SDS011;11497;52.222;21.246;2023-04-19T04:23:27;20.55;;;13.52;;
22660;SDS011;11497;52.222;21.246;2023-04-19T04:25:58;20.50;;;14.25;;
22660;SDS011;11497;52.222;21.246;2023-04-19T04:28:42;20.27;;;13.43;;
22660;SDS011;11497;52.222;21.246;2023-04-19T04:31:10;19.92;;;14.40;;
22660;SDS011;11497;52.222;21.246;2023-04-19T04:33:40;22.00;;;15.25;;
22660;SDS011;11497;52.222;21.246;2023-04-19T04:36:11;20.08;;;14.45;;
22660;SDS011;11497;52.222;21.246;2023-04-19T04:38:40;21.25;;;14.85;;
22660;SDS011;11497;52.222;21.246;2023-04-19T04:41:08;21.85;;;15.43;;
22660;SDS011;11497;52.222;21.246;2023-04-19T04:43:38;21.30;;;14.00;;
22660;SDS011;11497;52.222;21.246;2023-04-19T04:46:06;20.98;;;14.93;;
22660;SDS011;11497;52.222;21.246;2023-04-19T04:48:39;22.42;;;15.73;;
22660;SDS011;11497;52.222;21.246;2023-04-19T04:51:06;21.58;;;15.25;;
22660;SDS011;11497;52.222;21.246;2023-04-19T04:53:35;19.58;;;14.77;;
22660;SDS011;11497;52.222;21.246;2023-04-19T04:56:04;26.95;;;16.50;;
22660;SDS011;11497;52.222;21.246;2023-04-19T04:58:35;26.98;;;16.23;;
22660;SDS011;11497;52.222;21.246;2023-04-19T05:01:06;19.60;;;14.57;;
22660;SDS011;11497;52.222;21.246;2023-04-19T05:03:38;22.23;;;15.93;;
22660;SDS011;11497;52.222;21.246;2023-04-19T05:06:10;20.55;;;15.68;;
22660;SDS011;11497;52.222;21.246;2023-04-19T05:08:38;21.73;;;16.48;;
22660;SDS011;11497;52.222;21.246;2023-04-19T05:11:26;26.23;;;16.42;;
22660;SDS011;11497;52.222;21.246;2023-04-19T05:13:54;25.67;;;17.65;;
22660;SDS011;11497;52.222;21.246;2023-04-19T05:16:24;21.13;;;16.63;;
22660;SDS011;11497;52.222;21.246;2023-04-19T05:18:53;24.38;;;17.05;;
22660;SDS011;11497;52.222;21.246;2023-04-19T05:21:23;23.70;;;17.30;;
22660;SDS011;11497;52.222;21.246;2023-04-19T05:23:53;25.08;;;17.83;;
22660;SDS011;11497;52.222;21.246;2023-04-19T05:26:22;22.08;;;16.02;;
22660;SDS011;11497;52.222;21.246;2023-04-19T05:28:51;21.92;;;16.80;;
22660;SDS011;11497;52.222;21.246;2023-04-19T05:31:26;22.25;;;16.38;;
22660;SDS011;11497;52.222;21.246;2023-04-19T05:34:05;20.65;;;15.50;;
22660;SDS011;11497;52.222;21.246;2023-04-19T05:36:33;22.92;;;15.60;;
22660;SDS011;11497;52.222;21.246;2023-04-19T05:39:01;23.38;;;16.23;;
22660;SDS011;11497;52.222;21.246;2023-04-19T05:41:29;22.02;;;16.15;;
22660;SDS011;11497;52.222;21.246;2023-04-19T05:43:57;21.38;;;15.43;;
22660;SDS011;11497;52.222;21.246;2023-04-19T05:46:25;20.98;;;14.95;;
22660;SDS011;11497;52.222;21.246;2023-04-19T05:48:55;19.48;;;14.55;;
22660;SDS011;11497;52.222;21.246;2023-04-19T05:51:26;18.75;;;15.07;;
22660;SDS011;11497;52.222;21.246;2023-04-19T05:54:03;19.90;;;14.75;;
22660;SDS011;11497;52.222;21.246;2023-04-19T05:56:31;19.83;;;14.30;;
22660;SDS011;11497;52.222;21.246;2023-04-19T05:58:59;23.45;;;14.77;;
22660;SDS011;11497;52.222;21.246;2023-04-19T06:01:27;17.70;;;13.50;;
22660;SDS011;11497;52.222;21.246;2023-04-19T06:03:55;17.42;;;14.00;;
22660;SDS011;11497;52.222;21.246;2023-04-19T06:06:23;18.23;;;13.43;;
22660;SDS011;11497;52.222;21.246;2023-04-19T06:08:52;16.25;;;12.60;;
22660;SDS011;11497;52.222;21.246;2023-04-19T06:11:20;17.98;;;12.85;;
22660;SDS011;11497;52.222;21.246;2023-04-19T06:14:01;17.73;;;12.55;;
22660;SDS011;11497;52.222;21.246;2023-04-19T06:16:29;15.10;;;11.63;;
22660;SDS011;11497;52.222;21.246;2023-04-19T06:18:57;17.48;;;12.27;;
22660;SDS011;11497;52.222;21.246;2023-04-19T06:21:24;14.57;;;11.43;;
22660;SDS011;11497;52.222;21.246;2023-04-19T06:23:55;15.60;;;10.98;;
22660;SDS011;11497;52.222;21.246;2023-04-19T06:26:23;17.95;;;11.70;;
22660;SDS011;11497;52.222;21.246;2023-04-19T06:28:51;14.82;;;11.55;;
22660;SDS011;11497;52.222;21.246;2023-04-19T06:31:19;14.32;;;11.20;;
22660;SDS011;11497;52.222;21.246;2023-04-19T06:33:47;16.80;;;11.93;;
22660;SDS011;11497;52.222;21.246;2023-04-19T06:36:14;18.17;;;11.52;;
22660;SDS011;11497;52.222;21.246;2023-04-19T06:38:42;16.98;;;12.40;;
22660;SDS011;11497;52.222;21.246;2023-04-19T06:41:11;17.38;;;12.45;;
22660;SDS011;11497;52.222;21.246;2023-04-19T06:43:39;14.27;;;10.63;;
22660;SDS011;11497;52.222;21.246;2023-04-19T06:46:08;15.82;;;10.27;;
22660;SDS011;11497;52.222;21.246;2023-04-19T06:48:37;12.93;;;10.05;;
22660;SDS011;11497;52.222;21.246;2023-04-19T06:51:04;16.02;;;10.75;;
22660;SDS011;11497;52.222;21.246;2023-04-19T06:53:33;14.55;;;11.60;;
22660;SDS011;11497;52.222;21.246;2023-04-19T06:56:02;16.17;;;11.63;;
22660;SDS011;11497;52.222;21.246;2023-04-19T06:58:31;15.77;;;10.93;;
22660;SDS011;11497;52.222;21.246;2023-04-19T07:01:02;15.15;;;11.15;;
22660;SDS011;11497;52.222;21.246;2023-04-19T07:03:30;17.23;;;11.95;;
22660;SDS011;11497;52.222;21.246;2023-04-19T07:05:58;16.67;;;11.27;;
22660;SDS011;11497;52.222;21.246;2023-04-19T07:08:27;16.42;;;11.00;;
22660;SDS011;11497;52.222;21.246;2023-04-19T07:11:14;15.88;;;10.50;;
22660;SDS011;11497;52.222;21.246;2023-04-19T07:13:42;13.18;;;10.00;;
22660;SDS011;11497;52.222;21.246;2023-04-19T07:16:09;21.08;;;11.23;;
22660;SDS011;11497;52.222;21.246;2023-04-19T07:18:38;14.00;;;10.75;;
22660;SDS011;11497;52.222;21.246;2023-04-19T07:21:06;14.98;;;11.27;;
22660;SDS011;11497;52.222;21.246;2023-04-19T07:23:34;15.60;;;10.63;;
22660;SDS011;11497;52.222;21.246;2023-04-19T07:26:01;17.15;;;10.85;;
22660;SDS011;11497;52.222;21.246;2023-04-19T07:28:29;14.15;;;11.40;;
22660;SDS011;11497;52.222;21.246;2023-04-19T07:30:57;14.00;;;10.45;;
22660;SDS011;11497;52.222;21.246;2023-04-19T07:33:26;16.05;;;10.82;;
22660;SDS011;11497;52.222;21.246;2023-04-19T07:35:55;13.40;;;10.75;;
22660;SDS011;11497;52.222;21.246;2023-04-19T07:38:23;14.48;;;10.50;;
22660;SDS011;11497;52.222;21.246;2023-04-19T07:40:51;13.95;;;10.13;;
22660;SDS011;11497;52.222;21.246;2023-04-19T07:43:19;16.88;;;10.98;;
22660;SDS011;11497;52.222;21.246;2023-04-19T07:45:46;15.23;;;10.68;;
22660;SDS011;11497;52.222;21.246;2023-04-19T07:48:14;13.02;;;9.43;;
22660;SDS011;11497;52.222;21.246;2023-04-19T07:50:42;10.90;;;8.63;;
22660;SDS011;11497;52.222;21.246;2023-04-19T07:53:10;15.05;;;8.98;;
22660;SDS011;11497;52.222;21.246;2023-04-19T07:55:38;13.02;;;9.85;;
22660;SDS011;11497;52.222;21.246;2023-04-19T07:58:06;12.35;;;8.75;;
22660;SDS011;11497;52.222;21.246;2023-04-19T08:00:33;11.95;;;9.13;;
22660;SDS011;11497;52.222;21.246;2023-04-19T08:03:03;12.73;;;9.20;;
22660;SDS011;11497;52.222;21.246;2023-04-19T08:05:32;10.18;;;8.10;;
22660;SDS011;11497;52.222;21.246;2023-04-19T08:08:01;10.75;;;7.90;;
22660;SDS011;11497;52.222;21.246;2023-04-19T08:10:29;13.68;;;8.23;;
22660;SDS011;11497;52.222;21.246;2023-04-19T08:12:57;10.02;;;7.88;;
22660;SDS011;11497;52.222;21.246;2023-04-19T08:15:32;13.45;;;8.77;;
22660;SDS011;11497;52.222;21.246;2023-04-19T08:18:04;10.50;;;8.68;;
22660;SDS011;11497;52.222;21.246;2023-04-19T08:20:31;16.30;;;9.13;;
22660;SDS011;11497;52.222;21.246;2023-04-19T08:22:59;10.25;;;8.48;;
22660;SDS011;11497;52.222;21.246;2023-04-19T08:25:44;12.85;;;8.23;;
22660;SDS011;11497;52.222;21.246;2023-04-19T08:28:11;10.48;;;7.82;;
22660;SDS011;11497;52.222;21.246;2023-04-19T08:30:39;10.65;;;8.40;;
22660;SDS011;11497;52.222;21.246;2023-04-19T08:33:07;12.48;;;8.40;;
22660;SDS011;11497;52.222;21.246;2023-04-19T08:35:37;12.55;;;8.30;;
22660;SDS011;11497;52.222;21.246;2023-04-19T08:38:08;10.15;;;8.27;;
22660;SDS011;11497;52.222;21.246;2023-04-19T08:40:45;10.75;;;8.57;;
22660;SDS011;11497;52.222;21.246;2023-04-19T08:43:18;13.02;;;8.30;;
22660;SDS011;11497;52.222;21.246;2023-04-19T08:45:47;10.63;;;8.00;;
22660;SDS011;11497;52.222;21.246;2023-04-19T08:48:16;10.30;;;7.85;;
22660;SDS011;11497;52.222;21.246;2023-04-19T08:50:44;10.88;;;8.73;;
22660;SDS011;11497;52.222;21.246;2023-04-19T08:53:32;11.60;;;8.77;;
22660;SDS011;11497;52.222;21.246;2023-04-19T08:56:01;11.70;;;9.15;;
22660;SDS011;11497;52.222;21.246;2023-04-19T08:58:46;12.60;;;9.07;;
22660;SDS011;11497;52.222;21.246;2023-04-19T09:01:17;13.20;;;8.85;;
22660;SDS011;11497;52.222;21.246;2023-04-19T09:04:00;12.02;;;9.25;;
22660;SDS011;11497;52.222;21.246;2023-04-19T09:06:51;13.65;;;9.07;;
22660;SDS011;11497;52.222;21.246;2023-04-19T09:09:21;12.65;;;9.07;;
22660;SDS011;11497;52.222;21.246;2023-04-19T09:12:14;17.77;;;8.63;;
22660;SDS011;11497;52.222;21.246;2023-04-19T09:14:44;12.32;;;9.00;;
22660;SDS011;11497;52.222;21.246;2023-04-19T09:17:27;13.48;;;8.68;;
22660;SDS011;11497;52.222;21.246;2023-04-19T09:19:57;13.93;;;9.90;;
22660;SDS011;11497;52.222;21.246;2023-04-19T09:22:25;13.88;;;9.60;;
22660;SDS011;11497;52.222;21.246;2023-04-19T09:24:53;15.68;;;10.15;;
22660;SDS011;11497;52.222;21.246;2023-04-19T09:27:28;11.20;;;8.57;;
22660;SDS011;11497;52.222;21.246;2023-04-19T09:29:58;11.93;;;8.97;;
22660;SDS011;11497;52.222;21.246;2023-04-19T09:32:27;14.63;;;8.65;;
22660;SDS011;11497;52.222;21.246;2023-04-19T09:35:11;15.13;;;9.50;;
22660;SDS011;11497;52.222;21.246;2023-04-19T09:37:39;13.73;;;10.45;;
22660;SDS011;11497;52.222;21.246;2023-04-19T09:40:27;15.43;;;9.10;;
22660;SDS011;11497;52.222;21.246;2023-04-19T09:42:55;12.93;;;9.73;;
22660;SDS011;11497;52.222;21.246;2023-04-19T09:45:43;12.77;;;9.00;;
22660;SDS011;11497;52.222;21.246;2023-04-19T09:48:12;14.38;;;10.77;;
22660;SDS011;11497;52.222;21.246;2023-04-19T09:53:40;15.30;;;10.32;;
22660;SDS011;11497;52.222;21.246;2023-04-19T09:56:09;13.95;;;10.27;;
22660;SDS011;11497;52.222;21.246;2023-04-19T09:58:38;14.70;;;10.40;;
22660;SDS011;11497;52.222;21.246;2023-04-19T10:01:20;13.95;;;10.10;;
22660;SDS011;11497;52.222;21.246;2023-04-19T10:03:51;13.23;;;9.70;;
22660;SDS011;11497;52.222;21.246;2023-04-19T10:06:21;16.35;;;9.73;;
22660;SDS011;11497;52.222;21.246;2023-04-19T10:09:05;13.75;;;9.82;;
22660;SDS011;11497;52.222;21.246;2023-04-19T10:11:35;13.70;;;9.18;;
22660;SDS011;11497;52.222;21.246;2023-04-19T10:14:10;17.27;;;10.70;;
22660;SDS011;11497;52.222;21.246;2023-04-19T10:16:38;16.92;;;10.20;;
22660;SDS011;11497;52.222;21.246;2023-04-19T10:19:13;14.13;;;9.75;;
22660;SDS011;11497;52.222;21.246;2023-04-19T10:21:43;15.98;;;10.10;;
22660;SDS011;11497;52.222;21.246;2023-04-19T10:24:13;13.43;;;9.25;;
22660;SDS011;11497;52.222;21.246;2023-04-19T10:32:17;17.02;;;9.95;;
22660;SDS011;11497;52.222;21.246;2023-04-19T10:34:45;13.63;;;9.27;;
22660;SDS011;11497;52.222;21.246;2023-04-19T10:37:13;12.13;;;8.70;;
22660;SDS011;11497;52.222;21.246;2023-04-19T10:39:43;16.40;;;9.40;;
22660;SDS011;11497;52.222;21.246;2023-04-19T10:42:11;14.05;;;8.85;;
22660;SDS011;11497;52.222;21.246;2023-04-19T10:44:39;12.60;;;9.48;;
22660;SDS011;11497;52.222;21.246;2023-04-19T10:47:07;10.93;;;9.00;;
22660;SDS011;11497;52.222;21.246;2023-04-19T10:49:44;13.52;;;8.93;;
22660;SDS011;11497;52.222;21.246;2023-04-19T10:52:25;16.25;;;9.07;;
22660;SDS011;11497;52.222;21.246;2023-04-19T10:54:55;11.65;;;8.27;;
22660;SDS011;11497;52.222;21.246;2023-04-19T10:57:23;10.48;;;7.82;;
22660;SDS011;11497;52.222;21.246;2023-04-19T11:00:16;13.75;;;8.27;;
22660;SDS011;11497;52.222;21.246;2023-04-19T11:02:44;9.57;;;7.40;;
22660;SDS011;11497;52.222;21.246;2023-04-19T11:05:12;11.30;;;7.70;;
22660;SDS011;11497;52.222;21.246;2023-04-19T11:07:40;10.30;;;7.85;;
22660;SDS011;11497;52.222;21.246;2023-04-19T11:10:09;10.88;;;7.55;;
22660;SDS011;11497;52.222;21.246;2023-04-19T11:12:40;12.43;;;8.05;;
22660;SDS011;11497;52.222;21.246;2023-04-19T11:15:09;11.45;;;7.57;;
22660;SDS011;11497;52.222;21.246;2023-04-19T11:17:37;10.27;;;7.53;;
22660;SDS011;11497;52.222;21.246;2023-04-19T11:20:08;11.82;;;7.40;;
22660;SDS011;11497;52.222;21.246;2023-04-19T11:22:38;11.75;;;7.65;;
22660;SDS011;11497;52.222;21.246;2023-04-19T11:25:13;8.65;;;7.00;;
22660;SDS011;11497;52.222;21.246;2023-04-19T11:27:47;8.43;;;7.07;;
22660;SDS011;11497;52.222;21.246;2023-04-19T11:30:20;9.40;;;7.32;;
22660;SDS011;11497;52.222;21.246;2023-04-19T11:32:54;9.55;;;7.45;;
22660;SDS011;11497;52.222;21.246;2023-04-19T11:35:27;11.10;;;6.85;;
22660;SDS011;11497;52.222;21.246;2023-04-19T11:37:58;10.32;;;6.70;;
22660;SDS011;11497;52.222;21.246;2023-04-19T11:40:27;11.52;;;6.95;;
22660;SDS011;11497;52.222;21.246;2023-04-19T11:42:58;16.02;;;7.55;;
22660;SDS011;11497;52.222;21.246;2023-04-19T11:48:04;10.02;;;7.45;;
22660;SDS011;11497;52.222;21.246;2023-04-19T11:50:39;15.20;;;7.57;;
22660;SDS011;11497;52.222;21.246;2023-04-19T11:55:44;9.15;;;7.32;;
22660;SDS011;11497;52.222;21.246;2023-04-19T11:58:23;10.07;;;6.95;;
22660;SDS011;11497;52.222;21.246;2023-04-19T12:00:52;10.70;;;6.85;;
22660;SDS011;11497;52.222;21.246;2023-04-19T12:03:21;10.57;;;7.03;;
22660;SDS011;11497;52.222;21.246;2023-04-19T12:05:52;8.30;;;6.32;;
22660;SDS011;11497;52.222;21.246;2023-04-19T12:08:31;6.80;;;4.82;;
22660;SDS011;11497;52.222;21.246;2023-04-19T12:11:00;6.18;;;5.25;;
22660;SDS011;11497;52.222;21.246;2023-04-19T12:13:29;7.07;;;5.80;;
22660;SDS011;11497;52.222;21.246;2023-04-19T12:15:58;10.10;;;5.90;;
22660;SDS011;11497;52.222;21.246;2023-04-19T12:18:27;10.13;;;6.50;;
22660;SDS011;11497;52.222;21.246;2023-04-19T12:21:10;10.35;;;6.63;;
22660;SDS011;11497;52.222;21.246;2023-04-19T12:23:49;8.38;;;6.50;;
22660;SDS011;11497;52.222;21.246;2023-04-19T12:26:19;9.65;;;6.82;;
22660;SDS011;11497;52.222;21.246;2023-04-19T12:28:47;7.55;;;5.85;;
22660;SDS011;11497;52.222;21.246;2023-04-19T12:31:14;8.05;;;6.57;;
22660;SDS011;11497;52.222;21.246;2023-04-19T12:33:42;8.85;;;6.47;;
22660;SDS011;11497;52.222;21.246;2023-04-19T12:36:10;8.95;;;7.15;;
22660;SDS011;11497;52.222;21.246;2023-04-19T12:38:38;9.70;;;7.13;;
22660;SDS011;11497;52.222;21.246;2023-04-19T12:41:06;8.23;;;6.78;;
22660;SDS011;11497;52.222;21.246;2023-04-19T12:43:35;12.05;;;7.20;;
22660;SDS011;11497;52.222;21.246;2023-04-19T12:46:03;10.27;;;7.93;;
22660;SDS011;11497;52.222;21.246;2023-04-19T12:48:31;9.40;;;7.30;;
22660;SDS011;11497;52.222;21.246;2023-04-19T12:50:59;8.82;;;7.22;;
22660;SDS011;11497;52.222;21.246;2023-04-19T12:53:27;10.18;;;7.20;;
22660;SDS011;11497;52.222;21.246;2023-04-19T12:55:55;8.35;;;7.07;;
22660;SDS011;11497;52.222;21.246;2023-04-19T12:58:23;11.65;;;7.28;;
22660;SDS011;11497;52.222;21.246;2023-04-19T13:00:53;8.98;;;6.97;;
22660;SDS011;11497;52.222;21.246;2023-04-19T13:03:21;8.52;;;6.88;;
22660;SDS011;11497;52.222;21.246;2023-04-19T13:05:49;11.57;;;7.03;;
22660;SDS011;11497;52.222;21.246;2023-04-19T13:08:17;11.38;;;7.68;;
22660;SDS011;11497;52.222;21.246;2023-04-19T13:10:59;11.38;;;7.70;;
22660;SDS011;11497;52.222;21.246;2023-04-19T13:13:28;11.70;;;7.85;;
22660;SDS011;11497;52.222;21.246;2023-04-19T13:15:56;11.93;;;7.72;;
22660;SDS011;11497;52.222;21.246;2023-04-19T13:18:25;12.82;;;7.53;;
22660;SDS011;11497;52.222;21.246;2023-04-19T13:20:53;11.20;;;7.35;;
22660;SDS011;11497;52.222;21.246;2023-04-19T13:23:21;10.02;;;7.40;;
22660;SDS011;11497;52.222;21.246;2023-04-19T13:25:48;9.90;;;7.25;;
22660;SDS011;11497;52.222;21.246;2023-04-19T13:28:16;9.30;;;7.40;;
22660;SDS011;11497;52.222;21.246;2023-04-19T13:30:44;10.02;;;7.07;;
22660;SDS011;11497;52.222;21.246;2023-04-19T13:33:12;8.98;;;7.63;;
22660;SDS011;11497;52.222;21.246;2023-04-19T13:35:40;12.95;;;7.60;;
22660;SDS011;11497;52.222;21.246;2023-04-19T13:38:08;11.57;;;7.60;;
22660;SDS011;11497;52.222;21.246;2023-04-19T13:40:35;14.15;;;8.95;;
22660;SDS011;11497;52.222;21.246;2023-04-19T13:43:04;12.68;;;8.30;;
22660;SDS011;11497;52.222;21.246;2023-04-19T13:45:31;11.57;;;8.13;;
22660;SDS011;11497;52.222;21.246;2023-04-19T13:47:59;9.15;;;7.93;;
22660;SDS011;11497;52.222;21.246;2023-04-19T13:50:28;13.70;;;8.68;;
22660;SDS011;11497;52.222;21.246;2023-04-19T13:52:56;9.93;;;7.95;;
22660;SDS011;11497;52.222;21.246;2023-04-19T13:55:24;13.45;;;8.55;;
22660;SDS011;11497;52.222;21.246;2023-04-19T13:57:52;10.23;;;8.50;;
22660;SDS011;11497;52.222;21.246;2023-04-19T14:00:20;13.85;;;8.75;;
22660;SDS011;11497;52.222;21.246;2023-04-19T14:02:48;12.52;;;8.40;;
22660;SDS011;11497;52.222;21.246;2023-04-19T14:05:18;10.57;;;8.13;;
22660;SDS011;11497;52.222;21.246;2023-04-19T14:07:46;10.18;;;8.43;;
22660;SDS011;11497;52.222;21.246;2023-04-19T14:10:14;10.93;;;7.78;;
22660;SDS011;11497;52.222;21.246;2023-04-19T14:12:42;12.07;;;7.80;;
22660;SDS011;11497;52.222;21.246;2023-04-19T14:15:10;10.27;;;7.72;;
22660;SDS011;11497;52.222;21.246;2023-04-19T14:17:39;10.75;;;8.40;;
22660;SDS011;11497;52.222;21.246;2023-04-19T14:20:07;11.43;;;8.07;;
22660;SDS011;11497;52.222;21.246;2023-04-19T14:22:35;13.20;;;8.27;;
22660;SDS011;11497;52.222;21.246;2023-04-19T14:25:03;12.32;;;7.95;;
22660;SDS011;11497;52.222;21.246;2023-04-19T14:27:31;12.18;;;7.32;;
22660;SDS011;11497;52.222;21.246;2023-04-19T14:29:59;11.55;;;7.97;;
22660;SDS011;11497;52.222;21.246;2023-04-19T14:32:27;9.48;;;7.85;;
22660;SDS011;11497;52.222;21.246;2023-04-19T14:34:55;9.07;;;6.95;;
22660;SDS011;11497;52.222;21.246;2023-04-19T14:37:23;9.52;;;7.35;;
22660;SDS011;11497;52.222;21.246;2023-04-19T14:39:51;10.80;;;6.60;;
22660;SDS011;11497;52.222;21.246;2023-04-19T14:42:19;9.80;;;6.93;;
22660;SDS011;11497;52.222;21.246;2023-04-19T14:44:49;9.40;;;6.82;;
22660;SDS011;11497;52.222;21.246;2023-04-19T14:47:18;11.55;;;7.00;;
22660;SDS011;11497;52.222;21.246;2023-04-19T14:49:47;14.43;;;7.47;;